sensor_id;sensor_type;location;lat;lon;timestamp;P1;durP1;ratioP1;P2;durP2;ratioP2
77876;SDS011;67251;50.844;7.978;2023-03-12T00:02:24;11.25;;;4.40;;
77876;SDS011;67251;50.844;7.978;2023-03-12T00:04:49;8.05;;;3.83;;
77876;SDS011;67251;50.844;7.978;2023-03-12T00:07:15;7.35;;;4.05;;
77876;SDS011;67251;50.844;7.978;2023-03-12T00:09:40;9.05;;;4.22;;
77876;SDS011;67251;50.844;7.978;2023-03-12T00:12:06;8.95;;;4.18;;
77876;SDS011;67251;50.844;7.978;2023-03-12T00:14:32;11.05;;;4.85;;
77876;SDS011;67251;50.844;7.978;2023-03-12T00:16:58;12.98;;;5.13;;
77876;SDS011;67251;50.844;7.978;2023-03-12T00:19:23;10.60;;;4.50;;
77876;SDS011;67251;50.844;7.978;2023-03-12T00:21:48;11.18;;;3.95;;
77876;SDS011;67251;50.844;7.978;2023-03-12T00:24:14;5.05;;;2.65;;
77876;SDS011;67251;50.844;7.978;2023-03-12T00:26:40;10.02;;;3.58;;
77876;SDS011;67251;50.844;7.978;2023-03-12T00:29:06;9.23;;;3.70;;
77876;SDS011;67251;50.844;7.978;2023-03-12T00:31:32;17.10;;;5.30;;
77876;SDS011;67251;50.844;7.978;2023-03-12T00:33:58;10.43;;;4.05;;
77876;SDS011;67251;50.844;7.978;2023-03-12T00:36:26;12.43;;;4.80;;
77876;SDS011;67251;50.844;7.978;2023-03-12T00:38:54;10.48;;;4.70;;
77876;SDS011;67251;50.844;7.978;2023-03-12T00:41:21;13.45;;;4.38;;
77876;SDS011;67251;50.844;7.978;2023-03-12T00:43:48;9.15;;;4.25;;
77876;SDS011;67251;50.844;7.978;2023-03-12T00:46:14;9.02;;;4.15;;
77876;SDS011;67251;50.844;7.978;2023-03-12T00:48:40;10.95;;;4.85;;
77876;SDS011;67251;50.844;7.978;2023-03-12T00:51:06;9.60;;;4.75;;
77876;SDS011;67251;50.844;7.978;2023-03-12T00:53:31;11.15;;;4.20;;
77876;SDS011;67251;50.844;7.978;2023-03-12T00:55:57;11.10;;;5.20;;
77876;SDS011;67251;50.844;7.978;2023-03-12T00:58:22;10.07;;;4.07;;
77876;SDS011;67251;50.844;7.978;2023-03-12T01:00:48;11.85;;;5.00;;
77876;SDS011;67251;50.844;7.978;2023-03-12T01:03:13;9.90;;;4.32;;
77876;SDS011;67251;50.844;7.978;2023-03-12T01:05:39;10.35;;;5.22;;
77876;SDS011;67251;50.844;7.978;2023-03-12T01:08:05;11.75;;;4.95;;
77876;SDS011;67251;50.844;7.978;2023-03-12T01:10:31;14.82;;;5.13;;
77876;SDS011;67251;50.844;7.978;2023-03-12T01:12:57;15.63;;;5.40;;
77876;SDS011;67251;50.844;7.978;2023-03-12T01:15:23;10.05;;;4.60;;
77876;SDS011;67251;50.844;7.978;2023-03-12T01:17:49;8.95;;;4.13;;
77876;SDS011;67251;50.844;7.978;2023-03-12T01:20:15;10.30;;;5.20;;
77876;SDS011;67251;50.844;7.978;2023-03-12T01:22:41;10.30;;;4.50;;
77876;SDS011;67251;50.844;7.978;2023-03-12T01:25:06;8.18;;;4.20;;
77876;SDS011;67251;50.844;7.978;2023-03-12T01:27:32;11.40;;;5.07;;
77876;SDS011;67251;50.844;7.978;2023-03-12T01:29:58;14.35;;;5.55;;
77876;SDS011;67251;50.844;7.978;2023-03-12T01:32:24;12.07;;;4.85;;
77876;SDS011;67251;50.844;7.978;2023-03-12T01:34:49;9.77;;;4.72;;
77876;SDS011;67251;50.844;7.978;2023-03-12T01:37:15;12.40;;;4.65;;
77876;SDS011;67251;50.844;7.978;2023-03-12T01:39:40;10.43;;;4.85;;
77876;SDS011;67251;50.844;7.978;2023-03-12T01:42:05;6.97;;;3.70;;
77876;SDS011;67251;50.844;7.978;2023-03-12T01:44:47;9.55;;;4.25;;
77876;SDS011;67251;50.844;7.978;2023-03-12T01:47:13;9.15;;;3.97;;
77876;SDS011;67251;50.844;7.978;2023-03-12T01:49:38;8.15;;;4.13;;
77876;SDS011;67251;50.844;7.978;2023-03-12T01:55:33;9.07;;;4.30;;
77876;SDS011;67251;50.844;7.978;2023-03-12T01:57:58;11.27;;;4.18;;
77876;SDS011;67251;50.844;7.978;2023-03-12T02:00:25;8.40;;;4.55;;
77876;SDS011;67251;50.844;7.978;2023-03-12T02:02:52;10.43;;;4.18;;
77876;SDS011;67251;50.844;7.978;2023-03-12T02:05:24;10.98;;;4.82;;
77876;SDS011;67251;50.844;7.978;2023-03-12T02:07:57;12.50;;;4.93;;
77876;SDS011;67251;50.844;7.978;2023-03-12T02:10:23;11.40;;;4.85;;
77876;SDS011;67251;50.844;7.978;2023-03-12T02:12:50;11.85;;;4.63;;
77876;SDS011;67251;50.844;7.978;2023-03-12T02:15:16;9.73;;;3.47;;
77876;SDS011;67251;50.844;7.978;2023-03-12T02:17:42;8.38;;;4.03;;
77876;SDS011;67251;50.844;7.978;2023-03-12T02:22:48;7.78;;;4.03;;
77876;SDS011;67251;50.844;7.978;2023-03-12T02:28:02;6.55;;;3.40;;
77876;SDS011;67251;50.844;7.978;2023-03-12T02:30:31;10.50;;;3.92;;
77876;SDS011;67251;50.844;7.978;2023-03-12T02:33:01;10.68;;;4.68;;
77876;SDS011;67251;50.844;7.978;2023-03-12T02:35:30;6.53;;;2.83;;
77876;SDS011;67251;50.844;7.978;2023-03-12T02:37:56;8.20;;;3.80;;
77876;SDS011;67251;50.844;7.978;2023-03-12T02:42:51;6.78;;;3.22;;
77876;SDS011;67251;50.844;7.978;2023-03-12T02:45:18;13.05;;;4.40;;
77876;SDS011;67251;50.844;7.978;2023-03-12T02:47:44;7.70;;;3.28;;
77876;SDS011;67251;50.844;7.978;2023-03-12T02:50:09;7.95;;;3.95;;
77876;SDS011;67251;50.844;7.978;2023-03-12T02:52:35;10.85;;;4.63;;
77876;SDS011;67251;50.844;7.978;2023-03-12T02:55:02;10.23;;;4.20;;
77876;SDS011;67251;50.844;7.978;2023-03-12T02:57:29;9.55;;;4.25;;
77876;SDS011;67251;50.844;7.978;2023-03-12T02:59:55;9.77;;;4.40;;
77876;SDS011;67251;50.844;7.978;2023-03-12T03:02:20;12.48;;;4.97;;
77876;SDS011;67251;50.844;7.978;2023-03-12T03:04:45;11.32;;;4.25;;
77876;SDS011;67251;50.844;7.978;2023-03-12T03:07:11;7.85;;;3.90;;
77876;SDS011;67251;50.844;7.978;2023-03-12T03:09:36;10.93;;;4.32;;
77876;SDS011;67251;50.844;7.978;2023-03-12T03:12:02;7.95;;;4.13;;
77876;SDS011;67251;50.844;7.978;2023-03-12T03:14:27;6.90;;;3.53;;
77876;SDS011;67251;50.844;7.978;2023-03-12T03:16:53;7.63;;;3.55;;
77876;SDS011;67251;50.844;7.978;2023-03-12T03:19:18;8.07;;;3.13;;
77876;SDS011;67251;50.844;7.978;2023-03-12T03:21:43;8.50;;;3.65;;
77876;SDS011;67251;50.844;7.978;2023-03-12T03:24:09;9.35;;;3.97;;
77876;SDS011;67251;50.844;7.978;2023-03-12T03:26:35;9.10;;;3.70;;
77876;SDS011;67251;50.844;7.978;2023-03-12T03:29:00;8.50;;;3.88;;
77876;SDS011;67251;50.844;7.978;2023-03-12T03:31:26;9.48;;;4.07;;
77876;SDS011;67251;50.844;7.978;2023-03-12T03:33:51;10.88;;;4.60;;
77876;SDS011;67251;50.844;7.978;2023-03-12T03:36:17;10.35;;;4.07;;
77876;SDS011;67251;50.844;7.978;2023-03-12T03:38:43;6.95;;;2.95;;
77876;SDS011;67251;50.844;7.978;2023-03-12T03:41:13;10.32;;;3.67;;
77876;SDS011;67251;50.844;7.978;2023-03-12T03:43:42;8.35;;;3.28;;
77876;SDS011;67251;50.844;7.978;2023-03-12T03:46:08;8.88;;;3.25;;
77876;SDS011;67251;50.844;7.978;2023-03-12T03:48:35;7.88;;;3.78;;
77876;SDS011;67251;50.844;7.978;2023-03-12T03:51:01;7.95;;;3.63;;
77876;SDS011;67251;50.844;7.978;2023-03-12T03:53:28;8.07;;;3.58;;
77876;SDS011;67251;50.844;7.978;2023-03-12T03:55:55;7.38;;;3.45;;
77876;SDS011;67251;50.844;7.978;2023-03-12T03:58:20;7.97;;;3.15;;
77876;SDS011;67251;50.844;7.978;2023-03-12T04:00:46;10.07;;;3.28;;
77876;SDS011;67251;50.844;7.978;2023-03-12T04:03:11;7.28;;;3.15;;
77876;SDS011;67251;50.844;7.978;2023-03-12T04:05:37;6.25;;;2.78;;
77876;SDS011;67251;50.844;7.978;2023-03-12T04:08:03;4.35;;;1.70;;
77876;SDS011;67251;50.844;7.978;2023-03-12T04:10:29;9.45;;;3.20;;
77876;SDS011;67251;50.844;7.978;2023-03-12T04:12:55;7.32;;;2.80;;
77876;SDS011;67251;50.844;7.978;2023-03-12T04:15:20;8.23;;;3.63;;
77876;SDS011;67251;50.844;7.978;2023-03-12T04:17:46;10.10;;;4.60;;
77876;SDS011;67251;50.844;7.978;2023-03-12T04:20:12;10.85;;;4.47;;
77876;SDS011;67251;50.844;7.978;2023-03-12T04:22:37;7.63;;;3.20;;
77876;SDS011;67251;50.844;7.978;2023-03-12T04:25:03;6.85;;;2.70;;
77876;SDS011;67251;50.844;7.978;2023-03-12T04:27:29;9.10;;;3.78;;
77876;SDS011;67251;50.844;7.978;2023-03-12T04:29:54;8.35;;;3.47;;
77876;SDS011;67251;50.844;7.978;2023-03-12T04:32:19;7.65;;;3.40;;
77876;SDS011;67251;50.844;7.978;2023-03-12T04:34:45;8.90;;;3.85;;
77876;SDS011;67251;50.844;7.978;2023-03-12T04:37:10;13.98;;;3.85;;
77876;SDS011;67251;50.844;7.978;2023-03-12T04:39:38;10.50;;;3.45;;
77876;SDS011;67251;50.844;7.978;2023-03-12T04:42:04;8.18;;;3.38;;
77876;SDS011;67251;50.844;7.978;2023-03-12T04:44:30;4.90;;;1.80;;
77876;SDS011;67251;50.844;7.978;2023-03-12T04:46:55;4.57;;;1.90;;
77876;SDS011;67251;50.844;7.978;2023-03-12T04:49:21;7.03;;;3.22;;
77876;SDS011;67251;50.844;7.978;2023-03-12T04:51:46;8.77;;;3.03;;
77876;SDS011;67251;50.844;7.978;2023-03-12T04:54:12;7.72;;;3.22;;
77876;SDS011;67251;50.844;7.978;2023-03-12T04:56:37;6.20;;;3.20;;
77876;SDS011;67251;50.844;7.978;2023-03-12T04:59:03;6.38;;;2.97;;
77876;SDS011;67251;50.844;7.978;2023-03-12T05:01:31;8.73;;;3.15;;
77876;SDS011;67251;50.844;7.978;2023-03-12T05:03:58;8.07;;;3.53;;
77876;SDS011;67251;50.844;7.978;2023-03-12T05:06:24;8.25;;;3.80;;
77876;SDS011;67251;50.844;7.978;2023-03-12T05:08:49;7.13;;;3.05;;
77876;SDS011;67251;50.844;7.978;2023-03-12T05:11:16;8.93;;;3.72;;
77876;SDS011;67251;50.844;7.978;2023-03-12T05:13:44;9.80;;;4.05;;
77876;SDS011;67251;50.844;7.978;2023-03-12T05:16:13;9.82;;;4.00;;
77876;SDS011;67251;50.844;7.978;2023-03-12T05:18:40;9.48;;;3.70;;
77876;SDS011;67251;50.844;7.978;2023-03-12T05:21:16;10.90;;;4.15;;
77876;SDS011;67251;50.844;7.978;2023-03-12T05:23:43;7.00;;;2.70;;
77876;SDS011;67251;50.844;7.978;2023-03-12T05:31:11;7.30;;;2.40;;
77876;SDS011;67251;50.844;7.978;2023-03-12T05:33:38;5.90;;;2.67;;
77876;SDS011;67251;50.844;7.978;2023-03-12T05:36:03;6.35;;;2.88;;
77876;SDS011;67251;50.844;7.978;2023-03-12T05:38:29;7.22;;;2.88;;
77876;SDS011;67251;50.844;7.978;2023-03-12T05:40:55;5.80;;;3.33;;
77876;SDS011;67251;50.844;7.978;2023-03-12T05:43:23;10.38;;;2.80;;
77876;SDS011;67251;50.844;7.978;2023-03-12T05:45:49;8.05;;;2.65;;
77876;SDS011;67251;50.844;7.978;2023-03-12T05:48:15;5.20;;;2.30;;
77876;SDS011;67251;50.844;7.978;2023-03-12T05:50:40;8.75;;;3.17;;
77876;SDS011;67251;50.844;7.978;2023-03-12T05:53:06;6.25;;;2.78;;
77876;SDS011;67251;50.844;7.978;2023-03-12T05:55:35;10.27;;;3.47;;
77876;SDS011;67251;50.844;7.978;2023-03-12T05:58:02;8.05;;;4.35;;
77876;SDS011;67251;50.844;7.978;2023-03-12T06:00:28;10.57;;;4.47;;
77876;SDS011;67251;50.844;7.978;2023-03-12T06:02:54;13.30;;;5.78;;
77876;SDS011;67251;50.844;7.978;2023-03-12T06:05:19;11.95;;;5.47;;
77876;SDS011;67251;50.844;7.978;2023-03-12T06:07:46;8.98;;;3.42;;
77876;SDS011;67251;50.844;7.978;2023-03-12T06:10:11;9.55;;;3.65;;
77876;SDS011;67251;50.844;7.978;2023-03-12T06:12:38;8.55;;;3.85;;
77876;SDS011;67251;50.844;7.978;2023-03-12T06:15:04;9.32;;;4.35;;
77876;SDS011;67251;50.844;7.978;2023-03-12T06:17:30;8.07;;;3.60;;
77876;SDS011;67251;50.844;7.978;2023-03-12T06:19:56;7.25;;;3.25;;
77876;SDS011;67251;50.844;7.978;2023-03-12T06:22:22;9.02;;;3.40;;
77876;SDS011;67251;50.844;7.978;2023-03-12T06:24:48;7.57;;;2.42;;
77876;SDS011;67251;50.844;7.978;2023-03-12T06:27:14;5.45;;;2.40;;
77876;SDS011;67251;50.844;7.978;2023-03-12T06:29:40;5.40;;;1.23;;
77876;SDS011;67251;50.844;7.978;2023-03-12T06:32:05;5.65;;;1.52;;
77876;SDS011;67251;50.844;7.978;2023-03-12T06:34:31;3.15;;;1.35;;
77876;SDS011;67251;50.844;7.978;2023-03-12T06:36:56;4.63;;;1.77;;
77876;SDS011;67251;50.844;7.978;2023-03-12T06:39:22;4.20;;;1.90;;
77876;SDS011;67251;50.844;7.978;2023-03-12T06:41:48;6.05;;;1.60;;
77876;SDS011;67251;50.844;7.978;2023-03-12T06:44:13;5.05;;;1.52;;
77876;SDS011;67251;50.844;7.978;2023-03-12T06:46:39;3.28;;;1.52;;
77876;SDS011;67251;50.844;7.978;2023-03-12T06:49:05;6.07;;;1.63;;
77876;SDS011;67251;50.844;7.978;2023-03-12T06:51:31;3.75;;;1.08;;
77876;SDS011;67251;50.844;7.978;2023-03-12T06:53:56;8.13;;;1.80;;
77876;SDS011;67251;50.844;7.978;2023-03-12T06:56:21;4.65;;;1.38;;
77876;SDS011;67251;50.844;7.978;2023-03-12T06:58:47;5.57;;;1.50;;
77876;SDS011;67251;50.844;7.978;2023-03-12T07:01:12;4.75;;;1.70;;
77876;SDS011;67251;50.844;7.978;2023-03-12T07:03:40;4.70;;;1.50;;
77876;SDS011;67251;50.844;7.978;2023-03-12T07:06:11;4.65;;;1.75;;
77876;SDS011;67251;50.844;7.978;2023-03-12T07:08:42;8.38;;;1.25;;
77876;SDS011;67251;50.844;7.978;2023-03-12T07:11:08;3.75;;;1.35;;
77876;SDS011;67251;50.844;7.978;2023-03-12T07:13:34;3.58;;;1.10;;
77876;SDS011;67251;50.844;7.978;2023-03-12T07:15:59;2.92;;;1.02;;
77876;SDS011;67251;50.844;7.978;2023-03-12T07:18:25;3.60;;;1.48;;
77876;SDS011;67251;50.844;7.978;2023-03-12T07:20:50;3.20;;;1.17;;
77876;SDS011;67251;50.844;7.978;2023-03-12T07:23:16;6.03;;;1.70;;
77876;SDS011;67251;50.844;7.978;2023-03-12T07:25:42;4.95;;;1.30;;
77876;SDS011;67251;50.844;7.978;2023-03-12T07:28:08;6.47;;;1.38;;
77876;SDS011;67251;50.844;7.978;2023-03-12T07:30:35;2.80;;;1.30;;
77876;SDS011;67251;50.844;7.978;2023-03-12T07:33:04;3.25;;;1.27;;
77876;SDS011;67251;50.844;7.978;2023-03-12T07:35:30;4.00;;;1.35;;
77876;SDS011;67251;50.844;7.978;2023-03-12T07:37:56;3.90;;;1.45;;
77876;SDS011;67251;50.844;7.978;2023-03-12T07:40:24;8.10;;;1.92;;
77876;SDS011;67251;50.844;7.978;2023-03-12T07:42:50;6.13;;;1.58;;
77876;SDS011;67251;50.844;7.978;2023-03-12T07:45:16;5.90;;;1.80;;
77876;SDS011;67251;50.844;7.978;2023-03-12T07:47:41;5.07;;;1.73;;
77876;SDS011;67251;50.844;7.978;2023-03-12T07:50:07;3.97;;;1.58;;
77876;SDS011;67251;50.844;7.978;2023-03-12T07:52:33;7.88;;;2.33;;
77876;SDS011;67251;50.844;7.978;2023-03-12T07:54:58;5.88;;;2.05;;
77876;SDS011;67251;50.844;7.978;2023-03-12T07:57:24;6.95;;;2.30;;
77876;SDS011;67251;50.844;7.978;2023-03-12T07:59:49;5.53;;;2.08;;
77876;SDS011;67251;50.844;7.978;2023-03-12T08:02:15;4.60;;;1.92;;
77876;SDS011;67251;50.844;7.978;2023-03-12T08:04:41;4.57;;;1.80;;
77876;SDS011;67251;50.844;7.978;2023-03-12T08:07:06;4.97;;;2.05;;
77876;SDS011;67251;50.844;7.978;2023-03-12T08:09:31;7.70;;;2.70;;
77876;SDS011;67251;50.844;7.978;2023-03-12T08:11:57;5.97;;;2.22;;
77876;SDS011;67251;50.844;7.978;2023-03-12T08:14:23;5.43;;;1.92;;
77876;SDS011;67251;50.844;7.978;2023-03-12T08:16:48;4.63;;;1.95;;
77876;SDS011;67251;50.844;7.978;2023-03-12T08:19:13;6.35;;;2.05;;
77876;SDS011;67251;50.844;7.978;2023-03-12T08:21:39;6.45;;;2.30;;
77876;SDS011;67251;50.844;7.978;2023-03-12T08:24:06;5.40;;;2.30;;
77876;SDS011;67251;50.844;7.978;2023-03-12T08:26:31;6.82;;;2.05;;
77876;SDS011;67251;50.844;7.978;2023-03-12T08:28:56;4.93;;;1.90;;
77876;SDS011;67251;50.844;7.978;2023-03-12T08:31:24;6.95;;;1.77;;
77876;SDS011;67251;50.844;7.978;2023-03-12T08:33:51;6.00;;;2.00;;
77876;SDS011;67251;50.844;7.978;2023-03-12T08:36:17;4.38;;;1.63;;
77876;SDS011;67251;50.844;7.978;2023-03-12T08:38:42;4.03;;;1.58;;
77876;SDS011;67251;50.844;7.978;2023-03-12T08:41:08;6.82;;;2.28;;
77876;SDS011;67251;50.844;7.978;2023-03-12T08:43:35;5.72;;;1.80;;
77876;SDS011;67251;50.844;7.978;2023-03-12T08:46:01;4.57;;;2.20;;
77876;SDS011;67251;50.844;7.978;2023-03-12T08:48:29;6.05;;;2.28;;
77876;SDS011;67251;50.844;7.978;2023-03-12T08:50:59;8.10;;;2.28;;
77876;SDS011;67251;50.844;7.978;2023-03-12T08:53:28;4.93;;;1.77;;
77876;SDS011;67251;50.844;7.978;2023-03-12T08:55:55;4.45;;;1.95;;
77876;SDS011;67251;50.844;7.978;2023-03-12T08:58:21;4.07;;;1.58;;
77876;SDS011;67251;50.844;7.978;2023-03-12T09:00:48;4.60;;;1.70;;
77876;SDS011;67251;50.844;7.978;2023-03-12T09:03:15;4.10;;;1.90;;
77876;SDS011;67251;50.844;7.978;2023-03-12T09:05:41;4.85;;;2.00;;
77876;SDS011;67251;50.844;7.978;2023-03-12T09:08:07;5.28;;;1.80;;
77876;SDS011;67251;50.844;7.978;2023-03-12T09:10:45;3.50;;;1.60;;
77876;SDS011;67251;50.844;7.978;2023-03-12T09:13:12;4.43;;;1.70;;
77876;SDS011;67251;50.844;7.978;2023-03-12T09:15:37;4.65;;;1.63;;
77876;SDS011;67251;50.844;7.978;2023-03-12T09:18:03;5.85;;;2.20;;
77876;SDS011;67251;50.844;7.978;2023-03-12T09:20:28;5.07;;;2.00;;
77876;SDS011;67251;50.844;7.978;2023-03-12T09:22:54;6.63;;;2.17;;
77876;SDS011;67251;50.844;7.978;2023-03-12T09:25:20;4.60;;;1.73;;
77876;SDS011;67251;50.844;7.978;2023-03-12T09:27:47;4.25;;;2.00;;
77876;SDS011;67251;50.844;7.978;2023-03-12T09:30:17;4.60;;;1.85;;
77876;SDS011;67251;50.844;7.978;2023-03-12T09:32:45;5.72;;;1.65;;
77876;SDS011;67251;50.844;7.978;2023-03-12T09:35:11;4.10;;;1.48;;
77876;SDS011;67251;50.844;7.978;2023-03-12T09:37:37;5.20;;;1.85;;
77876;SDS011;67251;50.844;7.978;2023-03-12T09:40:03;4.68;;;2.08;;
77876;SDS011;67251;50.844;7.978;2023-03-12T09:45:01;6.88;;;2.47;;
77876;SDS011;67251;50.844;7.978;2023-03-12T09:47:36;4.55;;;1.80;;
77876;SDS011;67251;50.844;7.978;2023-03-12T09:52:47;5.15;;;2.13;;
77876;SDS011;67251;50.844;7.978;2023-03-12T09:55:20;5.28;;;1.88;;
77876;SDS011;67251;50.844;7.978;2023-03-12T09:57:47;3.97;;;1.88;;
77876;SDS011;67251;50.844;7.978;2023-03-12T10:00:19;7.90;;;1.77;;
77876;SDS011;67251;50.844;7.978;2023-03-12T10:02:57;5.32;;;1.95;;
77876;SDS011;67251;50.844;7.978;2023-03-12T10:13:38;5.55;;;2.40;;
77876;SDS011;67251;50.844;7.978;2023-03-12T10:16:23;4.03;;;1.75;;
77876;SDS011;67251;50.844;7.978;2023-03-12T10:21:51;4.93;;;1.90;;
77876;SDS011;67251;50.844;7.978;2023-03-12T10:24:50;4.50;;;2.00;;
77876;SDS011;67251;50.844;7.978;2023-03-12T10:27:18;5.47;;;2.42;;
77876;SDS011;67251;50.844;7.978;2023-03-12T10:29:49;4.18;;;2.17;;
77876;SDS011;67251;50.844;7.978;2023-03-12T10:32:29;4.90;;;2.08;;
77876;SDS011;67251;50.844;7.978;2023-03-12T10:37:59;6.15;;;2.33;;
77876;SDS011;67251;50.844;7.978;2023-03-12T10:40:26;5.45;;;2.17;;
77876;SDS011;67251;50.844;7.978;2023-03-12T10:42:54;5.50;;;2.80;;
77876;SDS011;67251;50.844;7.978;2023-03-12T10:48:08;5.43;;;2.60;;
77876;SDS011;67251;50.844;7.978;2023-03-12T10:50:36;5.13;;;2.00;;
77876;SDS011;67251;50.844;7.978;2023-03-12T10:56:02;5.70;;;2.60;;
77876;SDS011;67251;50.844;7.978;2023-03-12T10:58:51;5.07;;;2.20;;
77876;SDS011;67251;50.844;7.978;2023-03-12T11:01:22;5.85;;;2.28;;
77876;SDS011;67251;50.844;7.978;2023-03-12T11:03:49;6.55;;;1.90;;
77876;SDS011;67251;50.844;7.978;2023-03-12T11:06:20;4.80;;;1.80;;
77876;SDS011;67251;50.844;7.978;2023-03-12T11:11:30;4.93;;;1.80;;
77876;SDS011;67251;50.844;7.978;2023-03-12T11:14:14;4.55;;;1.65;;
77876;SDS011;67251;50.844;7.978;2023-03-12T11:16:45;4.93;;;2.00;;
77876;SDS011;67251;50.844;7.978;2023-03-12T11:19:12;4.85;;;2.15;;
77876;SDS011;67251;50.844;7.978;2023-03-12T11:21:39;4.93;;;2.00;;
77876;SDS011;67251;50.844;7.978;2023-03-12T11:24:19;6.93;;;2.40;;
77876;SDS011;67251;50.844;7.978;2023-03-12T11:26:48;4.28;;;1.90;;
77876;SDS011;67251;50.844;7.978;2023-03-12T11:34:42;4.57;;;1.98;;
77876;SDS011;67251;50.844;7.978;2023-03-12T11:37:13;4.80;;;2.10;;
77876;SDS011;67251;50.844;7.978;2023-03-12T11:42:46;5.10;;;2.58;;
77876;SDS011;67251;50.844;7.978;2023-03-12T11:50:50;5.72;;;1.80;;
77876;SDS011;67251;50.844;7.978;2023-03-12T11:53:39;5.93;;;2.13;;
77876;SDS011;67251;50.844;7.978;2023-03-12T11:59:36;4.63;;;1.83;;
77876;SDS011;67251;50.844;7.978;2023-03-12T12:22:30;3.70;;;1.70;;
77876;SDS011;67251;50.844;7.978;2023-03-12T12:28:06;5.03;;;2.20;;
77876;SDS011;67251;50.844;7.978;2023-03-12T12:33:52;4.15;;;1.92;;
77876;SDS011;67251;50.844;7.978;2023-03-12T12:36:26;4.60;;;2.20;;
77876;SDS011;67251;50.844;7.978;2023-03-12T12:39:10;5.00;;;1.75;;
77876;SDS011;67251;50.844;7.978;2023-03-12T12:41:50;4.70;;;2.00;;
77876;SDS011;67251;50.844;7.978;2023-03-12T12:44:20;4.55;;;1.88;;
77876;SDS011;67251;50.844;7.978;2023-03-12T12:46:54;6.40;;;2.10;;
77876;SDS011;67251;50.844;7.978;2023-03-12T12:49:29;4.70;;;1.75;;
77876;SDS011;67251;50.844;7.978;2023-03-12T12:52:00;6.53;;;2.30;;
77876;SDS011;67251;50.844;7.978;2023-03-12T12:54:44;5.07;;;2.20;;
77876;SDS011;67251;50.844;7.978;2023-03-12T12:57:24;5.55;;;2.72;;
77876;SDS011;67251;50.844;7.978;2023-03-12T13:02:53;6.82;;;2.20;;
77876;SDS011;67251;50.844;7.978;2023-03-12T13:05:23;5.43;;;2.33;;
77876;SDS011;67251;50.844;7.978;2023-03-12T13:08:04;5.30;;;2.58;;
77876;SDS011;67251;50.844;7.978;2023-03-12T13:13:03;6.25;;;2.80;;
77876;SDS011;67251;50.844;7.978;2023-03-12T13:15:36;5.40;;;2.60;;
77876;SDS011;67251;50.844;7.978;2023-03-12T13:18:08;5.75;;;2.60;;
77876;SDS011;67251;50.844;7.978;2023-03-12T13:23:24;6.03;;;2.67;;
77876;SDS011;67251;50.844;7.978;2023-03-12T13:31:47;6.63;;;2.72;;
77876;SDS011;67251;50.844;7.978;2023-03-12T13:36:43;7.32;;;3.22;;
77876;SDS011;67251;50.844;7.978;2023-03-12T13:41:55;6.82;;;3.13;;
77876;SDS011;67251;50.844;7.978;2023-03-12T13:49:24;8.35;;;3.95;;
77876;SDS011;67251;50.844;7.978;2023-03-12T13:51:53;8.75;;;3.63;;
77876;SDS011;67251;50.844;7.978;2023-03-12T13:54:24;8.77;;;4.30;;
77876;SDS011;67251;50.844;7.978;2023-03-12T13:56:55;6.97;;;3.58;;
77876;SDS011;67251;50.844;7.978;2023-03-12T13:59:23;7.93;;;3.97;;
77876;SDS011;67251;50.844;7.978;2023-03-12T14:01:59;8.93;;;4.03;;
77876;SDS011;67251;50.844;7.978;2023-03-12T14:04:32;7.05;;;3.95;;
77876;SDS011;67251;50.844;7.978;2023-03-12T14:07:14;8.38;;;3.85;;
77876;SDS011;67251;50.844;7.978;2023-03-12T14:09:57;8.40;;;3.72;;
77876;SDS011;67251;50.844;7.978;2023-03-12T14:12:40;9.13;;;4.20;;
77876;SDS011;67251;50.844;7.978;2023-03-12T14:15:20;9.80;;;4.80;;
77876;SDS011;67251;50.844;7.978;2023-03-12T14:17:58;8.32;;;4.47;;
77876;SDS011;67251;50.844;7.978;2023-03-12T14:20:28;9.20;;;4.68;;
77876;SDS011;67251;50.844;7.978;2023-03-12T14:23:04;8.30;;;3.97;;
77876;SDS011;67251;50.844;7.978;2023-03-12T14:25:37;8.52;;;3.97;;
77876;SDS011;67251;50.844;7.978;2023-03-12T14:28:24;8.27;;;4.18;;
77876;SDS011;67251;50.844;7.978;2023-03-12T14:33:44;9.82;;;4.40;;
77876;SDS011;67251;50.844;7.978;2023-03-12T14:36:17;9.77;;;4.63;;
77876;SDS011;67251;50.844;7.978;2023-03-12T14:38:46;10.73;;;5.40;;
77876;SDS011;67251;50.844;7.978;2023-03-12T14:41:27;11.75;;;5.00;;
77876;SDS011;67251;50.844;7.978;2023-03-12T14:44:11;10.77;;;5.10;;
77876;SDS011;67251;50.844;7.978;2023-03-12T14:46:45;10.80;;;5.07;;
77876;SDS011;67251;50.844;7.978;2023-03-12T14:49:20;11.48;;;5.43;;
77876;SDS011;67251;50.844;7.978;2023-03-12T14:51:45;10.60;;;5.35;;
77876;SDS011;67251;50.844;7.978;2023-03-12T14:54:15;10.52;;;5.53;;
77876;SDS011;67251;50.844;7.978;2023-03-12T14:56:47;10.55;;;5.05;;
77876;SDS011;67251;50.844;7.978;2023-03-12T14:59:23;9.93;;;5.20;;
77876;SDS011;67251;50.844;7.978;2023-03-12T15:02:00;12.18;;;5.32;;
77876;SDS011;67251;50.844;7.978;2023-03-12T15:04:41;9.98;;;5.25;;
77876;SDS011;67251;50.844;7.978;2023-03-12T15:07:11;14.07;;;6.07;;
77876;SDS011;67251;50.844;7.978;2023-03-12T15:09:43;12.90;;;6.07;;
77876;SDS011;67251;50.844;7.978;2023-03-12T15:12:21;13.25;;;5.70;;
77876;SDS011;67251;50.844;7.978;2023-03-12T15:14:49;10.32;;;5.70;;
77876;SDS011;67251;50.844;7.978;2023-03-12T15:17:19;21.77;;;11.88;;
77876;SDS011;67251;50.844;7.978;2023-03-12T15:19:46;26.23;;;12.07;;
77876;SDS011;67251;50.844;7.978;2023-03-12T15:22:17;15.48;;;7.55;;
77876;SDS011;67251;50.844;7.978;2023-03-12T15:24:45;13.55;;;7.20;;
77876;SDS011;67251;50.844;7.978;2023-03-12T15:27:21;11.18;;;6.25;;
77876;SDS011;67251;50.844;7.978;2023-03-12T15:29:56;11.80;;;6.38;;
77876;SDS011;67251;50.844;7.978;2023-03-12T15:32:23;12.32;;;6.45;;
77876;SDS011;67251;50.844;7.978;2023-03-12T15:34:51;11.60;;;6.72;;
77876;SDS011;67251;50.844;7.978;2023-03-12T15:37:28;12.55;;;6.53;;
77876;SDS011;67251;50.844;7.978;2023-03-12T15:42:42;13.55;;;6.85;;
77876;SDS011;67251;50.844;7.978;2023-03-12T15:45:20;10.88;;;6.10;;
77876;SDS011;67251;50.844;7.978;2023-03-12T15:47:46;10.35;;;6.22;;
77876;SDS011;67251;50.844;7.978;2023-03-12T15:50:18;13.43;;;6.68;;
77876;SDS011;67251;50.844;7.978;2023-03-12T15:53:00;13.70;;;7.97;;
77876;SDS011;67251;50.844;7.978;2023-03-12T15:56:32;17.92;;;9.27;;
77876;SDS011;67251;50.844;7.978;2023-03-12T15:58:40;11.32;;;5.82;;
77876;SDS011;67251;50.844;7.978;2023-03-12T16:01:14;11.48;;;6.97;;
77876;SDS011;67251;50.844;7.978;2023-03-12T16:03:41;11.43;;;5.80;;
77876;SDS011;67251;50.844;7.978;2023-03-12T16:06:13;14.00;;;6.60;;
77876;SDS011;67251;50.844;7.978;2023-03-12T16:09:02;10.50;;;6.45;;
77876;SDS011;67251;50.844;7.978;2023-03-12T16:11:31;12.82;;;6.95;;
77876;SDS011;67251;50.844;7.978;2023-03-12T16:14:04;12.57;;;6.50;;
77876;SDS011;67251;50.844;7.978;2023-03-12T16:16:37;9.98;;;5.25;;
77876;SDS011;67251;50.844;7.978;2023-03-12T16:19:04;11.85;;;5.65;;
77876;SDS011;67251;50.844;7.978;2023-03-12T16:21:35;10.32;;;6.15;;
77876;SDS011;67251;50.844;7.978;2023-03-12T16:24:00;13.63;;;6.07;;
77876;SDS011;67251;50.844;7.978;2023-03-12T16:26:27;10.18;;;5.15;;
77876;SDS011;67251;50.844;7.978;2023-03-12T16:28:54;11.48;;;5.32;;
77876;SDS011;67251;50.844;7.978;2023-03-12T16:31:21;9.93;;;5.22;;
77876;SDS011;67251;50.844;7.978;2023-03-12T16:33:46;11.57;;;5.20;;
77876;SDS011;67251;50.844;7.978;2023-03-12T16:36:15;8.15;;;4.55;;
77876;SDS011;67251;50.844;7.978;2023-03-12T16:38:44;8.82;;;4.68;;
77876;SDS011;67251;50.844;7.978;2023-03-12T16:41:12;9.32;;;4.40;;
77876;SDS011;67251;50.844;7.978;2023-03-12T16:43:47;11.85;;;4.85;;
77876;SDS011;67251;50.844;7.978;2023-03-12T16:46:15;10.23;;;4.90;;
77876;SDS011;67251;50.844;7.978;2023-03-12T16:48:43;8.38;;;3.63;;
77876;SDS011;67251;50.844;7.978;2023-03-12T16:51:12;10.20;;;2.75;;